Time;durP1;ratioP1;P1;durP2;ratioP2;P2;SDS_P1;SDS_P2;PMS_P1;PMS_P2;Temp;Humidity;BMP_temperature;BMP_pressure;BME280_temperature;BME280_humidity;BME280_pressure;Samples;Min_cycle;Max_cycle;Signal;HPM_P1;HPM_P2
2022/07/05 00:00:08;;;;;;;1999.90;999.90;;;;;;;18.57;100.00;89785.97;5090258;28;20246;-57
2022/07/05 00:02:33;;;;;;;1999.90;999.90;;;;;;;18.58;100.00;89776.38;5073458;28;20699;-57
2022/07/05 00:04:59;;;;;;;1999.90;999.90;;;;;;;18.57;100.00;89780.44;5073119;28;20185;-57
2022/07/05 00:07:24;;;;;;;1999.90;999.90;;;;;;;18.51;100.00;89794.56;5073017;28;20257;-58
2022/07/05 00:09:52;;;;;;;1999.90;999.90;;;;;;;18.48;100.00;89800.56;5072919;28;20204;-58
2022/07/05 00:12:20;;;;;;;1999.90;999.90;;;;;;;18.48;100.00;89812.34;5090209;28;20331;-49
2022/07/05 00:14:46;;;;;;;1999.90;999.90;;;;;;;18.53;100.00;89802.28;5072587;28;20189;-57
2022/07/05 00:17:12;;;;;;;1999.90;999.90;;;;;;;18.55;100.00;89805.19;5089640;28;20181;-57
2022/07/05 00:19:38;;;;;;;1999.90;999.90;;;;;;;18.55;100.00;89772.03;5089710;28;20223;-56
2022/07/05 00:22:04;;;;;;;1999.90;999.90;;;;;;;18.52;100.00;89778.75;5072915;28;20274;-56
2022/07/05 00:24:30;;;;;;;1999.90;999.90;;;;;;;18.52;100.00;89789.78;5089855;28;20236;-57
2022/07/05 00:26:55;;;;;;;1999.90;999.90;;;;;;;18.44;100.00;89816.88;5072519;28;20197;-57
2022/07/05 00:29:21;;;;;;;1999.90;999.90;;;;;;;18.44;100.00;89814.13;5073072;28;20189;-60
2022/07/05 00:31:46;;;;;;;1999.90;999.90;;;;;;;18.47;100.00;89821.22;5089761;28;20185;-58
2022/07/05 00:34:12;;;;;;;1999.90;999.90;;;;;;;18.44;100.00;89836.22;5072535;28;20323;-49
2022/07/05 00:36:37;;;;;;;1999.90;999.90;;;;;;;18.43;100.00;89841.00;5089479;28;20189;-51
2022/07/05 00:39:06;;;;;;;1999.90;999.90;;;;;;;18.41;100.00;89842.91;5089728;28;20189;-52
2022/07/05 00:41:32;;;;;;;1999.90;999.90;;;;;;;18.39;100.00;89843.50;5072866;28;20265;-49
2022/07/05 00:44:03;;;;;;;1999.90;999.90;;;;;;;18.29;100.00;89861.41;5072080;28;20213;-51
2022/07/05 00:46:29;;;;;;;1999.90;999.90;;;;;;;18.31;100.00;89858.75;5072754;28;20215;-52
2022/07/05 00:48:56;;;;;;;1999.90;999.90;;;;;;;18.23;100.00;89858.22;5072429;28;20235;-53
2022/07/05 00:51:23;;;;;;;1999.90;999.90;;;;;;;18.21;100.00;89867.06;5089393;28;20200;-58
2022/07/05 00:53:49;;;;;;;1999.90;999.90;;;;;;;18.26;100.00;89846.00;5072249;28;20554;-56
2022/07/05 00:56:17;;;;;;;1999.90;999.90;;;;;;;18.28;100.00;89835.09;5071281;28;20222;-59
2022/07/05 00:58:43;;;;;;;1999.90;999.90;;;;;;;18.27;100.00;89869.53;5072307;28;20192;-59
2022/07/05 01:01:10;;;;;;;1999.90;999.90;;;;;;;18.24;100.00;89881.75;5072826;28;20185;-59
2022/07/05 01:03:36;;;;;;;1999.90;999.90;;;;;;;18.24;100.00;89859.66;5072222;28;20303;-59
2022/07/05 01:06:04;;;;;;;1999.90;999.90;;;;;;;18.23;100.00;89791.94;5088936;28;20230;-57
2022/07/05 01:08:32;;;;;;;1999.90;999.90;;;;;;;18.25;100.00;89778.28;5072029;28;20196;-60
2022/07/05 01:10:57;;;;;;;1999.90;999.90;;;;;;;18.23;100.00;89791.94;5089012;28;20192;-58
2022/07/05 01:13:24;;;;;;;1999.90;999.90;;;;;;;18.21;100.00;89800.09;5072131;28;20188;-58
2022/07/05 01:15:49;;;;;;;1999.90;999.90;;;;;;;18.23;100.00;89778.13;5071830;28;20188;-58
2022/07/05 01:18:15;;;;;;;1999.90;999.90;;;;;;;18.24;100.00;89771.28;5089049;28;20268;-58
2022/07/05 01:20:41;;;;;;;1999.90;999.90;;;;;;;18.27;100.00;89775.66;5072068;28;20282;-57
2022/07/05 01:23:07;;;;;;;1999.90;999.90;;;;;;;18.21;100.00;89786.31;5071880;28;20208;-58
2022/07/05 01:25:33;;;;;;;1999.90;999.90;;;;;;;18.22;100.00;89791.25;5089290;28;20239;-58
2022/07/05 01:27:59;;;;;;;1999.90;999.90;;;;;;;18.22;100.00;89793.25;5071707;28;20262;-58
2022/07/05 01:30:25;;;;;;;1999.90;999.90;;;;;;;18.16;100.00;89790.81;5071640;28;20189;-59
2022/07/05 01:32:51;;;;;;;1999.90;999.90;;;;;;;18.14;100.00;89806.53;5071727;28;20211;-59
2022/07/05 01:35:23;;;;;;;1999.90;999.90;;;;;;;18.19;100.00;89791.66;5071880;28;20242;-58
2022/07/05 01:37:49;;;;;;;1999.90;999.90;;;;;;;18.20;100.00;89804.91;5088744;28;20189;-59
2022/07/05 01:40:15;;;;;;;1999.90;999.90;;;;;;;18.20;100.00;89790.34;5072049;28;20195;-58
2022/07/05 01:42:40;;;;;;;1999.90;999.90;;;;;;;18.17;100.00;89789.50;5088635;28;20189;-59
2022/07/05 01:45:06;;;;;;;1999.90;999.90;;;;;;;18.16;100.00;89801.88;5088638;28;20338;-57
2022/07/05 01:47:35;;;;;;;1999.90;999.90;;;;;;;18.15;100.00;89807.97;5071527;28;20185;-64
2022/07/05 01:50:04;;;;;;;1999.90;999.90;;;;;;;18.17;100.00;89805.34;5071490;28;20189;-63
2022/07/05 01:52:31;;;;;;;1999.90;999.90;;;;;;;18.17;100.00;89805.34;5071820;28;20211;-63
2022/07/05 01:54:58;;;;;;;1999.90;999.90;;;;;;;18.15;100.00;89814.22;5088495;28;20193;-63
2022/07/05 01:57:23;;;;;;;1999.90;999.90;;;;;;;18.16;100.00;89803.88;5071510;28;20192;-63
2022/07/05 01:59:49;;;;;;;1999.90;999.90;;;;;;;18.18;100.00;89790.22;5088679;28;20190;-59
2022/07/05 02:02:14;;;;;;;1999.90;999.90;;;;;;;18.15;100.00;89807.97;5089011;28;20189;-55
2022/07/05 02:04:41;;;;;;;1999.90;999.90;;;;;;;18.14;100.00;89812.06;5071282;28;20212;-58
2022/07/05 02:07:07;;;;;;;1999.90;999.90;;;;;;;18.11;100.00;89829.78;5071801;28;20189;-58
2022/07/05 02:09:33;;;;;;;1999.90;999.90;;;;;;;18.13;100.00;89838.19;5075134;28;20193;-58
2022/07/05 02:11:59;;;;;;;1999.90;999.90;;;;;;;18.10;100.00;89851.13;5092052;28;20197;-58
2022/07/05 02:14:24;;;;;;;1999.90;999.90;;;;;;;18.07;100.00;89844.00;5074814;28;20387;-58
2022/07/05 02:16:50;;;;;;;1999.90;999.90;;;;;;;18.06;100.00;89848.09;5091652;28;20193;-58
2022/07/05 02:19:15;;;;;;;1999.90;999.90;;;;;;;18.05;100.00;89854.94;5091537;28;20212;-56
2022/07/05 02:21:41;;;;;;;1999.90;999.90;;;;;;;18.05;100.00;89862.47;5091488;28;20219;-58
2022/07/05 02:24:07;;;;;;;1999.90;999.90;;;;;;;18.06;100.00;89841.88;5075865;28;20197;-60
2022/07/05 02:26:32;;;;;;;1999.90;999.90;;;;;;;18.06;100.00;89828.06;5091646;28;20185;-59
2022/07/05 02:28:58;;;;;;;1999.90;999.90;;;;;;;18.03;100.00;89846.50;5091642;28;20197;-59
2022/07/05 02:31:24;;;;;;;1999.90;999.90;;;;;;;18.02;100.00;89850.56;5091425;28;20195;-60
2022/07/05 02:33:49;;;;;;;1999.90;999.90;;;;;;;18.00;100.00;89880.81;5091374;28;20213;-59
2022/07/05 02:36:15;;;;;;;1999.90;999.90;;;;;;;18.00;100.00;89943.56;5091399;28;20193;-59
2022/07/05 02:38:40;;;;;;;1999.90;999.90;;;;;;;17.97;100.00;89972.31;5074515;28;20199;-59
2022/07/05 02:41:07;;;;;;;1999.90;999.90;;;;;;;17.95;100.00;89983.94;5074508;28;20232;-57
2022/07/05 02:43:36;;;;;;;1999.90;999.90;;;;;;;17.96;100.00;89979.16;5074267;28;20220;-55
2022/07/05 02:46:03;;;;;;;1999.90;999.90;;;;;;;17.92;100.00;89984.41;5074347;28;20230;-55
2022/07/05 02:48:29;;;;;;;1999.90;999.90;;;;;;;17.85;100.00;90008.03;5074289;28;20284;-52
2022/07/05 02:50:55;;;;;;;1999.90;999.90;;;;;;;17.82;100.00;90003.72;5091293;28;20216;-55
2022/07/05 02:53:20;;;;;;;1999.90;999.90;;;;;;;17.86;100.00;90030.84;5074627;28;20178;-56
2022/07/05 02:55:45;;;;;;;1999.90;999.90;;;;;;;17.83;100.00;90027.22;5090893;28;20196;-58
2022/07/05 02:58:11;;;;;;;1999.90;999.90;;;;;;;17.82;100.00;90017.50;5091112;28;20188;-59
2022/07/05 03:00:36;;;;;;;1999.90;999.90;;;;;;;17.76;100.00;90038.41;5074115;28;20192;-57
2022/07/05 03:03:01;;;;;;;1999.90;999.90;;;;;;;17.74;100.00;90052.06;5073758;28;20216;-53
2022/07/05 03:05:28;;;;;;;1999.90;999.90;;;;;;;17.71;100.00;90070.50;5090844;28;20243;-52
2022/07/05 03:07:53;;;;;;;1999.90;999.90;;;;;;;17.67;100.00;90081.22;5091237;28;20185;-50
2022/07/05 03:10:19;;;;;;;1999.90;999.90;;;;;;;17.60;100.00;90103.44;5091004;28;20199;-56
2022/07/05 03:12:44;;;;;;;1999.90;999.90;;;;;;;17.60;100.00;90111.69;5090712;28;20196;-55
2022/07/05 03:15:10;;;;;;;1999.90;999.90;;;;;;;17.58;100.00;90106.75;5090473;28;20188;-57
2022/07/05 03:17:35;;;;;;;1999.90;999.90;;;;;;;17.60;100.00;90089.63;5073946;28;20189;-58
2022/07/05 03:20:00;;;;;;;1999.90;999.90;;;;;;;17.61;100.00;90096.59;5089635;28;20295;-58
2022/07/05 03:22:26;;;;;;;1999.90;999.90;;;;;;;17.60;100.00;90095.16;5073611;28;20186;-58
2022/07/05 03:24:51;;;;;;;1999.90;999.90;;;;;;;17.66;100.00;90081.81;5090030;28;20212;-58
2022/07/05 03:27:17;;;;;;;1999.90;999.90;;;;;;;17.66;100.00;90084.56;5090187;28;20200;-58
2022/07/05 03:29:42;;;;;;;1999.90;999.90;;;;;;;17.68;100.00;90079.94;5090364;28;20177;-58
2022/07/05 03:32:07;;;;;;;1999.90;999.90;;;;;;;17.70;100.00;90084.88;5090592;28;20193;-59
2022/07/05 03:34:33;;;;;;;1999.90;999.90;;;;;;;17.70;100.00;90095.91;5090325;28;20200;-60
2022/07/05 03:36:58;;;;;;;1999.90;999.90;;;;;;;17.65;100.00;90094.88;5073472;28;20185;-58
2022/07/05 03:39:23;;;;;;;1999.90;999.90;;;;;;;17.61;100.00;90099.34;5090567;28;20699;-59
2022/07/05 03:41:49;;;;;;;1999.90;999.90;;;;;;;17.60;100.00;90106.19;5090513;28;20185;-58
2022/07/05 03:44:14;;;;;;;1999.90;999.90;;;;;;;17.60;100.00;90108.94;5089768;28;20232;-57
2022/07/05 03:46:40;;;;;;;1999.90;999.90;;;;;;;17.62;100.00;90100.81;5090047;28;20230;-56
2022/07/05 03:49:05;;;;;;;1999.90;999.90;;;;;;;17.60;100.00;90106.19;5090209;28;20187;-55
2022/07/05 03:51:30;;;;;;;1999.90;999.90;;;;;;;17.55;100.00;90123.75;5090492;28;20249;-58
2022/07/05 03:53:56;;;;;;;1999.90;999.90;;;;;;;17.55;100.00;90129.25;5090572;28;20200;-58
2022/07/05 03:56:22;;;;;;;1999.90;999.90;;;;;;;17.52;100.00;90133.16;5090441;28;20204;-57
2022/07/05 03:58:49;;;;;;;1999.90;999.90;;;;;;;17.50;100.00;90138.50;5090104;28;20209;-54
2022/07/05 04:01:15;;;;;;;1999.90;999.90;;;;;;;17.48;100.00;90146.66;5073070;28;20192;-55
2022/07/05 04:03:40;;;;;;;1999.90;999.90;;;;;;;17.48;100.00;90141.13;5089976;28;20204;-56
2022/07/05 04:06:07;;;;;;;1999.90;999.90;;;;;;;17.49;100.00;90131.56;5072977;28;20212;-57
2022/07/05 04:08:32;;;;;;;1999.90;999.90;;;;;;;17.52;100.00;90124.88;5072886;28;20193;-56
2022/07/05 04:10:57;;;;;;;1999.90;999.90;;;;;;;17.50;100.00;90144.03;5089754;28;20192;-57
2022/07/05 04:13:23;;;;;;;1999.90;999.90;;;;;;;17.54;100.00;90139.56;5090062;28;20613;-56
2022/07/05 04:15:48;;;;;;;1999.90;999.90;;;;;;;17.61;100.00;90133.19;5072745;28;20193;-57
2022/07/05 04:18:13;;;;;;;1999.90;999.90;;;;;;;17.65;100.00;90121.72;5090182;28;20200;-57
2022/07/05 04:20:39;;;;;;;1999.90;999.90;;;;;;;17.72;100.00;90104.31;5089257;28;20205;-56
2022/07/05 04:23:04;;;;;;;1999.90;999.90;;;;;;;17.82;100.00;90091.28;5073039;28;20205;-56
2022/07/05 04:25:30;;;;;;;1999.90;999.90;;;;;;;17.82;100.00;90102.31;5072858;28;20208;-56
2022/07/05 04:27:56;;;;;;;1999.90;999.90;;;;;;;17.86;100.00;90092.31;5073193;28;20185;-57
2022/07/05 04:30:24;;;;;;;1999.90;999.90;;;;;;;17.89;100.00;90112.50;5072825;28;20185;-58
2022/07/05 04:32:49;;;;;;;1999.90;999.90;;;;;;;17.95;100.00;90110.19;5072878;28;20193;-54
2022/07/05 04:35:15;;;;;;;1999.90;999.90;;;;;;;17.95;100.00;90126.75;5089265;28;20200;-50
2022/07/05 04:37:41;;;;;;;1999.90;999.90;;;;;;;18.05;100.00;90122.69;5089160;28;20269;-53
2022/07/05 04:40:09;;;;;;;1999.90;999.90;;;;;;;18.11;100.00;90134.19;5072818;28;20185;-50
2022/07/05 04:42:35;;;;;;;1999.90;999.90;;;;;;;18.17;100.00;90136.66;5089213;28;20189;-56
2022/07/05 04:45:01;;;;;;;1999.90;999.90;;;;;;;18.22;100.00;90136.38;5072316;28;20272;-54
2022/07/05 04:47:26;;;;;;;1999.90;999.90;;;;;;;18.25;100.00;90142.78;5072601;28;20221;-55
2022/07/05 04:49:53;;;;;;;1999.90;999.90;;;;;;;18.27;100.00;90145.66;5089381;28;20196;-56
2022/07/05 04:52:18;;;;;;;1999.90;999.90;;;;;;;18.36;100.00;90136.69;5072736;28;20177;-58
2022/07/05 04:54:44;;;;;;;1999.90;999.90;;;;;;;18.40;100.00;90145.28;5072463;28;20191;-58
2022/07/05 04:57:09;;;;;;;1999.90;999.90;;;;;;;18.45;100.00;90155.28;5088985;28;20192;-58
2022/07/05 04:59:34;;;;;;;1999.90;999.90;;;;;;;18.51;100.00;90164.03;5089138;28;20181;-58
2022/07/05 05:02:00;;;;;;;1999.90;999.90;;;;;;;18.60;100.00;90171.59;5073446;28;20188;-58
2022/07/05 05:04:26;;;;;;;1999.90;999.90;;;;;;;18.66;100.00;90191.38;5088910;28;20217;-58
2022/07/05 05:06:51;;;;;;;1999.90;999.90;;;;;;;18.70;100.00;90195.16;5071973;28;20280;-58
2022/07/05 05:09:16;;;;;;;1999.90;999.90;;;;;;;18.80;100.00;90217.28;5089195;28;20225;-55
2022/07/05 05:11:42;;;;;;;1999.90;999.90;;;;;;;18.91;100.00;90227.75;5089687;28;20189;-55
2022/07/05 05:14:07;;;;;;;1999.90;999.90;;;;;;;19.01;100.00;90239.50;5089418;28;20192;-54
2022/07/05 05:16:32;;;;;;;1999.90;999.90;;;;;;;19.12;100.00;90261.03;5088832;28;20272;-55
2022/07/05 05:18:58;;;;;;;1999.90;999.90;;;;;;;19.19;100.00;90274.00;5088473;28;20339;-53
2022/07/05 05:21:23;;;;;;;1999.90;999.90;;;;;;;19.40;100.00;90288.00;5088853;28;20192;-54
2022/07/05 05:23:48;;;;;;;1999.90;999.90;;;;;;;19.95;100.00;90265.59;5071895;28;20208;-60
2022/07/05 05:26:14;;;;;;;1999.90;999.90;;;;;;;20.76;100.00;90222.63;5071844;28;20189;-59
2022/07/05 05:28:40;;;;;;;1999.90;999.90;;;;;;;21.56;100.00;90229.88;5088860;28;20217;-58
2022/07/05 05:31:05;;;;;;;1999.90;999.90;;;;;;;22.27;100.00;90328.16;5072192;28;20204;-58
2022/07/05 05:33:31;;;;;;;1999.90;999.90;;;;;;;22.89;100.00;90472.41;5071651;28;20181;-57
2022/07/05 05:35:57;;;;;;;1999.90;999.90;;;;;;;23.65;100.00;90667.28;5088506;28;20193;-58
2022/07/05 05:38:22;;;;;;;1999.90;999.90;;;;;;;23.92;100.00;91084.91;5071288;28;20192;-58
2022/07/05 05:40:48;;;;;;;1999.90;999.90;;;;;;;24.34;100.00;91548.81;5088773;28;20208;-57
2022/07/05 05:43:13;;;;;;;1999.90;999.90;;;;;;;24.66;100.00;91949.63;5073130;28;20259;-54
2022/07/05 05:45:39;;;;;;;1999.90;999.90;;;;;;;25.00;100.00;92064.06;5091896;28;20192;-58
2022/07/05 05:48:04;;;;;;;1999.90;999.90;;;;;;;25.39;100.00;92385.16;5092104;28;20189;-58
2022/07/05 05:50:32;;;;;;;1999.90;999.90;;;;;;;25.74;100.00;92587.31;5091838;28;20189;-57
2022/07/05 05:52:58;;;;;;;1999.90;999.90;;;;;;;25.80;100.00;92724.13;5075454;28;20208;-58
2022/07/05 05:55:26;;;;;;;1999.90;999.90;;;;;;;26.22;100.00;92876.94;5075057;28;20206;-58
2022/07/05 05:57:52;;;;;;;1999.90;999.90;;;;;;;26.53;100.00;93001.50;5074737;28;20185;-58
2022/07/05 06:00:19;;;;;;;1999.90;999.90;;;;;;;26.77;100.00;93118.56;5075066;28;20220;-57
2022/07/05 06:02:47;;;;;;;1999.90;999.90;;;;;;;27.28;100.00;93107.03;5075215;28;20185;-57
2022/07/05 06:05:13;;;;;;;1999.90;999.90;;;;;;;27.45;100.00;93267.75;5074949;28;20185;-57
2022/07/05 06:07:47;;;;;;;1999.90;999.90;;;;;;;27.81;100.00;93439.41;5075316;28;20303;-57
2022/07/05 06:10:18;;;;;;;1999.90;999.90;;;;;;;28.05;100.00;93530.75;5075800;28;20173;-56
2022/07/05 06:12:43;;;;;;;1999.90;999.90;;;;;;;28.55;100.00;93621.75;5074753;28;20181;-55
2022/07/05 06:15:09;;;;;;;1999.90;999.90;;;;;;;29.24;100.00;93733.59;5091492;28;20181;-61
2022/07/05 06:17:38;;;;;;;1999.90;999.90;;;;;;;29.89;100.00;93907.81;5074642;28;20234;-63
2022/07/05 06:20:06;;;;;;;1999.90;999.90;;;;;;;30.05;100.00;94097.31;5091169;28;20212;-65
2022/07/05 06:22:31;;;;;;;1999.90;999.90;;;;;;;29.91;100.00;94091.09;5074617;28;20196;-57
2022/07/05 06:24:57;;;;;;;1999.90;999.90;;;;;;;30.07;100.00;94384.84;5091229;28;20193;-58
2022/07/05 06:27:22;;;;;;;1999.90;999.90;;;;;;;30.37;100.00;94605.66;5091489;28;20185;-59
2022/07/05 06:29:47;;;;;;;1999.90;999.90;;;;;;;30.58;100.00;94526.66;5091150;28;20177;-58
2022/07/05 06:32:13;;;;;;;1999.90;999.90;;;;;;;30.89;100.00;94830.25;5090857;28;20276;-58
2022/07/05 06:34:38;;;;;;;1999.90;999.90;;;;;;;31.17;100.00;95022.25;5091502;28;20182;-58
2022/07/05 06:37:04;;;;;;;1999.90;999.90;;;;;;;31.05;100.00;95136.72;5091468;28;20182;-59
2022/07/05 06:39:29;;;;;;;1999.90;999.90;;;;;;;31.17;100.00;95167.00;5091067;28;20201;-59
2022/07/05 06:41:54;;;;;;;1999.90;999.90;;;;;;;31.20;100.00;95240.63;5091397;28;20220;-62
2022/07/05 06:44:20;;;;;;;1999.90;999.90;;;;;;;31.92;100.00;95296.44;5090978;28;20227;-61
2022/07/05 06:46:45;;;;;;;1999.90;999.90;;;;;;;32.05;100.00;95389.72;5091158;28;20224;-62
2022/07/05 06:49:10;;;;;;;1999.90;999.90;;;;;;;32.14;100.00;95389.28;5074188;28;20212;-62
2022/07/05 06:51:36;;;;;;;1999.90;999.90;;;;;;;32.58;100.00;95448.53;5091333;28;20177;-62
2022/07/05 06:54:02;;;;;;;1999.90;999.90;;;;;;;32.74;98.58;95484.19;5089625;28;20221;-62
2022/07/05 06:56:27;;;;;;;1999.90;999.90;;;;;;;33.13;97.80;95478.47;5074613;28;20185;-66
2022/07/05 06:58:53;;;;;;;1999.90;999.90;;;;;;;33.68;91.39;95505.47;5091433;28;20188;-58
2022/07/05 07:01:18;;;;;;;1999.90;999.90;;;;;;;33.74;85.90;95517.44;5091502;28;20228;-58
2022/07/05 07:03:43;;;;;;;1999.90;999.90;;;;;;;33.86;85.43;95517.19;5091002;28;20208;-59
2022/07/05 07:06:09;;;;;;;1999.90;999.90;;;;;;;34.19;83.42;95527.69;5090794;28;20193;-58
2022/07/05 07:11:18;;;;;;;1999.90;999.90;;;;;;;34.56;75.31;95572.59;5075399;28;20200;-58
2022/07/05 07:13:43;;;;;;;1999.90;999.90;;;;;;;33.17;82.74;95551.75;5090936;28;20189;-58
2022/07/05 07:16:09;;;;;;;1999.90;999.90;;;;;;;31.87;93.56;95504.44;5090575;28;20185;-70
2022/07/05 07:18:35;;;;;;;1999.90;999.90;;;;;;;31.16;100.00;95469.59;5073839;28;20182;-64
2022/07/05 07:21:01;;;;;;;1999.90;999.90;;;;;;;30.27;100.00;95424.94;5090420;28;20209;-62
2022/07/05 07:23:26;;;;;;;1999.90;999.90;;;;;;;29.27;100.00;95378.63;5073763;28;20192;-62
2022/07/05 07:25:51;;;;;;;1999.90;999.90;;;;;;;29.17;100.00;95381.03;5090810;28;20218;-62
2022/07/05 07:28:17;;;;;;;1999.90;999.90;;;;;;;29.02;100.00;95385.53;5090221;28;20185;-62
2022/07/05 07:30:42;;;;;;;1999.90;999.90;;;;;;;28.99;100.00;95364.78;5090519;28;20185;-60
2022/07/05 07:33:08;;;;;;;1999.90;999.90;;;;;;;29.51;100.00;95389.91;5090455;28;20181;-65
2022/07/05 07:35:33;;;;;;;1999.90;999.90;;;;;;;30.43;100.00;95449.34;5090948;28;20272;-61
2022/07/05 07:37:58;;;;;;;1999.90;999.90;;;;;;;31.87;96.61;95510.09;5073318;28;20189;-62
2022/07/05 07:40:24;;;;;;;1999.90;999.90;;;;;;;33.89;81.71;95572.81;5090440;28;20191;-61
2022/07/05 07:42:49;;;;;;;1999.90;999.90;;;;;;;34.65;73.03;95609.75;5073622;28;20189;-61
2022/07/05 07:45:14;;;;;;;1999.90;999.90;;;;;;;33.67;75.18;95603.19;5090137;28;20193;-61
2022/07/05 07:47:40;;;;;;;1999.90;999.90;;;;;;;31.89;87.24;95547.03;5090013;28;20189;-61
2022/07/05 07:50:06;;;;;;;1999.90;999.90;;;;;;;30.67;100.00;95496.47;5073637;28;20207;-62
2022/07/05 07:52:33;;;;;;;1999.90;999.90;;;;;;;29.58;100.00;95425.94;5090163;28;20203;-58
2022/07/05 07:54:59;;;;;;;1999.90;999.90;;;;;;;30.11;100.00;95456.13;5073393;28;20172;-60
2022/07/05 07:57:24;;;;;;;1999.90;999.90;;;;;;;31.30;100.00;95490.22;5089956;28;20185;-60
2022/07/05 07:59:50;;;;;;;1999.90;999.90;;;;;;;32.72;86.96;95543.44;5090067;28;20181;-61
2022/07/05 08:02:17;;;;;;;1999.90;999.90;;;;;;;33.87;79.40;95578.25;5090169;28;20233;-61
2022/07/05 08:04:42;;;;;;;1999.90;999.90;;;;;;;34.94;73.83;95607.69;5089628;28;20203;-62
2022/07/05 08:07:07;;;;;;;1999.90;999.90;;;;;;;35.05;66.67;95633.72;5089317;28;20276;-60
2022/07/05 08:09:33;;;;;;;1999.90;999.90;;;;;;;35.67;66.05;95633.44;5089878;28;20200;-69
2022/07/05 08:11:58;;;;;;;1999.90;999.90;;;;;;;35.39;63.34;95644.91;5089607;28;20191;-61
2022/07/05 08:14:24;;;;;;;1999.90;999.90;;;;;;;35.39;59.82;95659.88;5073084;28;20189;-65
2022/07/05 08:16:50;;;;;;;1999.90;999.90;;;;;;;34.73;62.91;95656.00;5072755;28;20243;-65
2022/07/05 08:22:02;;;;;;;1999.90;999.90;;;;;;;34.55;54.64;95662.69;5074150;28;20223;-63
2022/07/05 08:24:27;;;;;;;1999.90;999.90;;;;;;;34.94;50.76;95675.88;5089649;28;20213;-63
2022/07/05 08:26:53;;;;;;;1999.90;999.90;;;;;;;34.12;53.67;95670.22;5072560;28;20276;-71
2022/07/05 08:29:19;;;;;;;1999.90;999.90;;;;;;;33.93;53.35;95663.97;5072861;28;20227;-60
2022/07/05 08:31:49;;;;;;;1999.90;999.90;;;;;;;34.23;53.84;95664.25;5089394;28;20326;-66
2022/07/05 08:34:15;;;;;;;1999.90;999.90;;;;;;;33.55;50.91;95675.63;5072603;28;20185;-67
2022/07/05 08:36:41;;;;;;;1999.90;999.90;;;;;;;32.73;50.31;95675.16;5072427;28;20285;-66
2022/07/05 08:39:08;;;;;;;1999.90;999.90;;;;;;;31.87;56.78;95679.69;5089591;28;20208;-66
2022/07/05 08:41:41;;;;;;;1999.90;999.90;;;;;;;32.08;55.51;95672.13;5089391;28;20196;-67
2022/07/05 08:44:07;;;;;;;1999.90;999.90;;;;;;;33.38;51.75;95666.69;5089230;28;20212;-66
2022/07/05 08:46:36;;;;;;;1999.90;999.90;;;;;;;34.43;46.18;95677.69;5089166;28;20177;-69
2022/07/05 08:49:04;;;;;;;1999.90;999.90;;;;;;;34.80;45.37;95682.91;5071735;28;20181;-72
2022/07/05 08:51:33;;;;;;;1999.90;999.90;;;;;;;35.41;43.10;95684.88;5054838;28;20226;-69
2022/07/05 08:54:00;;;;;;;1999.90;999.90;;;;;;;36.15;42.06;95677.97;5054706;28;20204;-69
2022/07/05 08:56:25;;;;;;;1999.90;999.90;;;;;;;35.94;40.59;95685.91;5054729;28;20189;-71
2022/07/05 08:58:51;;;;;;;1999.90;999.90;;;;;;;35.30;39.67;95685.22;5054504;28;20195;-70
2022/07/05 09:01:17;;;;;;;1999.90;999.90;;;;;;;36.27;36.75;95684.88;5054850;28;20185;-72
2022/07/05 09:03:46;;;;;;;1999.90;999.90;;;;;;;35.59;38.76;95686.69;5054838;28;20316;-67
2022/07/05 09:06:15;;;;;;;1999.90;999.90;;;;;;;35.28;41.80;95685.00;5054918;28;20192;-62
2022/07/05 09:08:41;;;;;;;1999.90;999.90;;;;;;;35.37;40.81;95690.19;5054531;28;20274;-59
2022/07/05 09:11:09;;;;;;;1999.90;999.90;;;;;;;35.62;39.59;95688.41;5054789;28;20221;-59
2022/07/05 09:13:36;;;;;;;1999.90;999.90;;;;;;;34.44;42.32;95696.28;5054547;28;20185;-59
2022/07/05 09:16:02;;;;;;;1999.90;999.90;;;;;;;32.71;45.26;95694.75;5071417;28;20185;-56
2022/07/05 09:18:40;;;;;;;1999.90;999.90;;;;;;;31.33;45.75;95698.88;5053738;28;20286;-56
2022/07/05 09:21:15;;;;;;;1999.90;999.90;;;;;;;32.66;42.05;95695.59;5070590;28;20252;-58
2022/07/05 09:23:40;;;;;;;1999.90;999.90;;;;;;;32.67;41.31;95694.28;5088497;28;20232;-60
2022/07/05 09:26:06;;;;;;;1999.90;999.90;;;;;;;32.92;41.86;95692.81;5072005;28;20177;-67
2022/07/05 09:28:31;;;;;;;1999.90;999.90;;;;;;;33.93;40.40;95693.06;5088652;28;20214;-66
2022/07/05 09:30:57;;;;;;;1999.90;999.90;;;;;;;33.90;41.16;95687.75;5071822;28;20181;-65
2022/07/05 09:33:22;;;;;;;1999.90;999.90;;;;;;;33.18;41.27;95681.50;5088512;28;20189;-65
2022/07/05 09:35:59;;;;;;;1999.90;999.90;;;;;;;33.65;41.25;95682.31;5088843;28;20211;-64
2022/07/05 09:38:25;;;;;;;1999.90;999.90;;;;;;;31.56;42.65;95694.47;5088979;28;20192;-64
2022/07/05 09:40:55;;;;;;;1999.90;999.90;;;;;;;30.58;46.50;95691.47;5088959;28;20241;-58
2022/07/05 09:43:30;;;;;;;1999.90;999.90;;;;;;;30.26;47.50;95687.66;5071676;28;20292;-57
2022/07/05 09:46:00;;;;;;;1999.90;999.90;;;;;;;32.18;45.88;95681.75;5071818;28;20184;-59
2022/07/05 09:48:30;;;;;;;1999.90;999.90;;;;;;;33.43;42.46;95682.81;5088434;28;20223;-59
2022/07/05 09:51:15;;;;;;;1999.90;999.90;;;;;;;33.55;39.81;95692.63;5088943;28;20268;-59
2022/07/05 09:53:55;;;;;;;1999.90;999.90;;;;;;;33.87;38.92;95691.69;5071658;28;20193;-59
2022/07/05 09:56:21;;;;;;;1999.90;999.90;;;;;;;33.77;40.65;95688.53;5088424;28;20216;-59
2022/07/05 09:58:47;;;;;;;1999.90;999.90;;;;;;;33.57;38.08;95687.16;5071597;28;20249;-62
2022/07/05 10:01:32;;;;;;;1999.90;999.90;;;;;;;34.26;35.45;95702.88;5071608;28;20187;-62
2022/07/05 10:04:01;;;;;;;1999.90;999.90;;;;;;;35.07;33.78;95695.66;5071760;28;20208;-62
2022/07/05 10:06:29;;;;;;;1999.90;999.90;;;;;;;34.70;34.45;95696.13;5088336;28;20193;-62
2022/07/05 10:08:55;;;;;;;1999.90;999.90;;;;;;;34.92;34.33;95690.63;5071303;28;20181;-62
2022/07/05 10:11:22;;;;;;;1999.90;999.90;;;;;;;35.97;34.14;95684.75;5071772;28;20284;-62
2022/07/05 10:13:49;;;;;;;1999.90;999.90;;;;;;;36.83;32.17;95686.63;5071820;28;20213;-63
2022/07/05 10:16:16;;;;;;;1999.90;999.90;;;;;;;36.88;32.05;95680.72;5071316;28;20260;-61
2022/07/05 10:18:44;;;;;;;1999.90;999.90;;;;;;;34.50;35.02;95688.38;5071259;28;20192;-64
2022/07/05 10:21:14;;;;;;;1999.90;999.90;;;;;;;34.46;35.66;95691.56;5070938;28;20204;-61
2022/07/05 10:23:48;;;;;;;1999.90;999.90;;;;;;;34.33;35.50;95679.53;5071771;28;20252;-61
2022/07/05 10:26:15;;;;;;;1999.90;999.90;;;;;;;35.37;35.29;95687.34;5071476;28;20189;-61
2022/07/05 10:28:44;;;;;;;1999.90;999.90;;;;;;;36.43;32.16;95680.69;5072270;28;20288;-61
2022/07/05 10:31:11;;;;;;;1999.90;999.90;;;;;;;35.84;34.45;95682.06;5074625;28;20192;-61
2022/07/05 10:33:37;;;;;;;1999.90;999.90;;;;;;;35.86;32.82;95682.25;5074496;28;20185;-62
2022/07/05 10:36:03;;;;;;;1999.90;999.90;;;;;;;36.86;31.83;95683.41;5091361;28;20238;-69
2022/07/05 10:38:30;;;;;;;1999.90;999.90;;;;;;;36.76;33.63;95688.16;5074726;28;20181;-59
2022/07/05 10:41:01;;;;;;;1999.90;999.90;;;;;;;36.40;31.70;95694.00;5091202;28;20185;-58
2022/07/05 10:43:28;;;;;;;1999.90;999.90;;;;;;;34.16;34.78;95694.09;5074654;28;20201;-58
2022/07/05 10:45:53;;;;;;;1999.90;999.90;;;;;;;33.01;36.38;95689.56;5074213;28;20238;-58
2022/07/05 10:48:19;;;;;;;1999.90;999.90;;;;;;;32.02;39.04;95691.28;5091055;28;20267;-58
2022/07/05 10:50:58;;;;;;;1999.90;999.90;;;;;;;31.45;40.81;95700.28;5091126;28;20185;-58